createdAt,value
2018-08-03T00:01:46.963Z,10.10
2018-08-03T00:06:53.318Z,9.90
2018-08-03T00:11:57.549Z,11.33
2018-08-03T00:17:02.305Z,11.53
2018-08-03T00:22:05.645Z,10.87
2018-08-03T00:27:09.711Z,10.97
2018-08-03T00:32:12.818Z,10.90
2018-08-03T00:37:19.756Z,11.30
2018-08-03T00:42:23.638Z,11.53
2018-08-03T00:47:26.917Z,12.37
2018-08-03T00:52:30.166Z,12.33
2018-08-03T00:57:35.221Z,12.67
2018-08-03T01:02:39.743Z,11.80
2018-08-03T01:07:47.540Z,12.37
2018-08-03T01:13:03.537Z,12.37
2018-08-03T01:18:06.683Z,11.37
2018-08-03T01:23:09.929Z,11.77
2018-08-03T01:28:15.043Z,11.77
2018-08-03T01:33:21.690Z,13.33
2018-08-03T01:38:26.539Z,13.27
2018-08-03T01:43:30.202Z,12.30
2018-08-03T01:48:33.478Z,13.10
2018-08-03T01:53:37.325Z,13.17
2018-08-03T01:58:40.955Z,13.77
2018-08-03T02:03:45.018Z,14.60
2018-08-03T02:08:50.890Z,13.97
2018-08-03T02:14:01.038Z,14.10
2018-08-03T02:19:07.858Z,13.77
2018-08-03T02:24:11.065Z,13.00
2018-08-03T02:29:26.769Z,12.47
2018-08-03T02:34:34.268Z,13.80
2018-08-03T02:44:49.034Z,14.03
2018-08-03T02:49:52.228Z,13.85
2018-08-03T02:55:01.038Z,12.50
2018-08-03T03:00:07.317Z,13.03
2018-08-03T03:05:12.451Z,13.03
2018-08-03T03:10:20.450Z,12.87
2018-08-03T03:15:27.885Z,13.47
2018-08-03T03:20:35.574Z,13.00
2018-08-03T03:25:39.317Z,13.50
2018-08-03T03:30:42.483Z,12.87
2018-08-03T03:35:46.686Z,13.77
2018-08-03T03:40:50.634Z,14.33
2018-08-03T03:45:54.066Z,12.80
2018-08-03T03:50:57.839Z,12.97
2018-08-03T03:56:07.913Z,12.73
2018-08-03T04:01:12.685Z,11.60
2018-08-03T04:06:19.635Z,13.03
2018-08-03T04:11:25.054Z,13.20
2018-08-03T04:16:29.184Z,12.70
2018-08-03T04:21:32.088Z,12.93
2018-08-03T04:26:39.396Z,13.43
2018-08-03T04:31:48.600Z,15.10
2018-08-03T04:36:52.068Z,14.83
2018-08-03T04:47:24.024Z,17.03
2018-08-03T04:52:27.220Z,13.83
2018-08-03T04:57:30.585Z,14.77
2018-08-03T05:02:33.797Z,14.77
2018-08-03T05:07:40.440Z,13.87
2018-08-03T05:12:44.006Z,15.53
2018-08-03T05:17:50.297Z,13.53
2018-08-03T05:22:55.680Z,15.87
2018-08-03T05:33:31.296Z,14.07
2018-08-03T05:39:38.049Z,15.97
2018-08-03T05:44:43.731Z,11.83
2018-08-03T05:50:06.840Z,14.17
2018-08-03T05:55:09.816Z,13.57
2018-08-03T06:00:21.166Z,13.40
2018-08-03T06:05:24.423Z,11.83
2018-08-03T08:06:42.827Z,7.40
2018-08-03T08:11:49.970Z,6.20
2018-08-03T08:16:54.931Z,6.53
2018-08-03T08:22:01.444Z,6.23
2018-08-03T08:27:13.262Z,5.80
2018-08-03T08:32:17.406Z,7.43
2018-08-03T08:37:21.578Z,6.03
2018-08-03T08:42:28.277Z,6.40
2018-08-03T08:47:38.894Z,5.57
2018-08-03T08:52:42.393Z,5.80
2018-08-03T08:57:49.511Z,5.53
2018-08-03T09:02:53.112Z,5.33
2018-08-03T09:07:57.830Z,5.40
2018-08-03T09:13:03.057Z,5.47
2018-08-03T09:18:09.373Z,5.63
2018-08-03T09:23:17.605Z,5.60
2018-08-03T09:28:25.095Z,5.83
2018-08-03T09:33:30.091Z,5.27
2018-08-03T09:38:36.999Z,5.53
2018-08-03T09:43:45.270Z,5.57
2018-08-03T09:48:52.436Z,6.33
2018-08-03T09:53:57.981Z,5.70
2018-08-03T09:59:01.293Z,6.07
2018-08-03T10:04:05.208Z,5.37
2018-08-03T10:09:15.989Z,6.30
2018-08-03T10:19:47.027Z,5.90
2018-08-03T10:30:06.955Z,5.77
2018-08-03T10:35:13.948Z,5.67
2018-08-03T10:40:23.093Z,5.53
2018-08-03T10:45:28.229Z,5.20
2018-08-03T10:56:01.719Z,4.73
2018-08-03T11:01:08.422Z,5.07
2018-08-03T11:06:15.693Z,6.07
2018-08-03T11:11:23.600Z,5.20
2018-08-03T11:16:31.081Z,4.80
2018-08-03T11:21:36.566Z,4.50
2018-08-03T11:26:43.317Z,4.60
2018-08-03T11:31:49.155Z,4.53
2018-08-03T11:36:52.345Z,4.33
2018-08-03T11:41:56.259Z,4.70
2018-08-03T11:47:02.683Z,4.60
2018-08-03T11:52:13.406Z,4.83
2018-08-03T11:57:19.814Z,4.60
2018-08-03T12:02:23.657Z,4.47
2018-08-03T12:07:29.628Z,4.50
2018-08-03T12:12:38.883Z,4.20
2018-08-03T12:17:41.986Z,4.43
2018-08-03T12:22:53.071Z,4.27
2018-08-03T12:33:24.709Z,4.50
2018-08-03T12:38:29.669Z,4.37
2018-08-03T12:43:34.709Z,4.20
2018-08-03T12:48:41.740Z,4.50
2018-08-03T12:53:48.476Z,4.50
2018-08-03T13:09:51.934Z,4.50
2018-08-03T13:14:55.285Z,4.47
2018-08-03T13:20:03.873Z,4.90
2018-08-03T13:25:07.563Z,4.23
2018-08-03T13:30:11.664Z,4.20
2018-08-03T13:41:27.487Z,4.10
2018-08-03T13:46:33.032Z,3.73
2018-08-03T13:51:36.054Z,4.10
2018-08-03T13:56:41.075Z,3.93
2018-08-03T14:07:15.085Z,4.00
2018-08-03T14:31:32.985Z,4.10
2018-08-03T14:37:09.605Z,4.10
2018-08-03T14:42:26.118Z,4.03
2018-08-03T14:47:52.025Z,4.00
2018-08-03T14:52:57.433Z,3.93
2018-08-03T14:58:00.887Z,4.60
2018-08-03T15:03:42.759Z,4.40
2018-08-03T15:08:49.442Z,4.23
2018-08-03T15:14:01.119Z,3.83
2018-08-03T15:19:13.068Z,4.10
2018-08-03T15:24:41.696Z,4.10
2018-08-03T15:29:55.569Z,3.97
2018-08-03T15:35:04.666Z,4.00
2018-08-03T15:40:24.095Z,3.83
2018-08-03T15:45:34.592Z,3.87
2018-08-03T15:50:45.784Z,4.60
2018-08-03T15:55:49.140Z,4.70
2018-08-03T16:00:52.745Z,4.07
2018-08-03T16:06:01.716Z,3.90
2018-08-03T16:11:13.380Z,4.00
2018-08-03T16:16:19.132Z,4.07
2018-08-03T16:21:28.511Z,4.03
2018-08-03T16:26:46.715Z,4.13
2018-08-03T16:37:30.605Z,3.83
2018-08-03T16:42:33.668Z,4.20
2018-08-03T16:47:36.743Z,3.73
2018-08-03T16:52:39.825Z,3.97
2018-08-03T16:57:43.581Z,4.30
2018-08-03T17:02:48.572Z,4.00
2018-08-03T17:07:52.796Z,3.67
2018-08-03T17:12:56.849Z,3.93
2018-08-03T17:17:59.961Z,3.40
2018-08-03T17:23:03.002Z,3.70
2018-08-03T17:28:06.691Z,3.70
2018-08-03T17:33:10.353Z,3.73
2018-08-03T17:38:13.377Z,3.83
2018-08-03T17:43:19.153Z,3.43
2018-08-03T17:48:22.214Z,4.20
2018-08-03T17:53:25.248Z,3.90
2018-08-03T17:58:28.309Z,3.60
2018-08-03T18:03:31.404Z,3.67
2018-08-03T18:08:39.488Z,4.03
2018-08-03T18:13:42.553Z,3.90
2018-08-03T18:18:45.684Z,3.80
2018-08-03T18:23:48.733Z,4.17
2018-08-03T18:28:52.081Z,3.77
2018-08-03T18:33:55.113Z,3.93
2018-08-03T18:38:58.236Z,4.33
2018-08-03T18:44:01.285Z,4.67
2018-08-03T18:49:05.378Z,4.80
2018-08-03T18:54:08.508Z,4.60
2018-08-03T18:59:11.549Z,5.90
2018-08-03T19:04:14.669Z,4.97
2018-08-03T19:09:17.792Z,4.47
2018-08-03T19:14:21.673Z,4.83
2018-08-03T19:19:24.696Z,3.73
2018-08-03T19:24:27.891Z,4.77
2018-08-03T20:42:46.266Z,5.43
2018-08-03T20:47:49.431Z,4.80
2018-08-03T20:52:52.605Z,5.67
2018-08-03T20:57:55.709Z,5.50
2018-08-03T21:02:58.764Z,5.03
2018-08-03T21:08:01.865Z,5.80
2018-08-03T21:13:04.889Z,5.50
2018-08-03T21:18:08.037Z,4.93
2018-08-03T21:23:11.093Z,5.17
2018-08-03T21:28:14.124Z,4.60
2018-08-03T21:33:17.301Z,4.10
2018-08-03T21:38:20.341Z,4.30
2018-08-03T21:43:23.417Z,4.50
2018-08-03T21:48:26.456Z,4.67
2018-08-03T21:53:29.581Z,4.53
2018-08-03T21:58:32.680Z,4.27
2018-08-03T22:03:35.700Z,4.00
2018-08-03T22:08:39.338Z,4.50
2018-08-03T22:13:42.357Z,4.10
2018-08-03T22:18:45.391Z,4.00
2018-08-03T22:23:48.412Z,3.90
2018-08-03T22:28:51.452Z,4.00
2018-08-03T22:33:54.481Z,4.30
2018-08-03T22:38:58.713Z,3.90
2018-08-03T22:44:01.748Z,4.33
2018-08-03T22:49:04.768Z,4.10
2018-08-03T22:54:07.800Z,4.30
2018-08-03T22:59:10.845Z,4.30
2018-08-03T23:04:13.914Z,3.83
2018-08-03T23:09:16.993Z,4.40
2018-08-03T23:14:20.049Z,4.23
2018-08-03T23:19:23.084Z,4.23
2018-08-03T23:24:26.122Z,4.13
2018-08-03T23:29:29.149Z,4.20
2018-08-03T23:34:32.189Z,4.30
2018-08-03T23:39:35.225Z,4.77
2018-08-03T23:44:38.261Z,4.27
2018-08-03T23:49:41.444Z,4.63
2018-08-03T23:54:44.474Z,4.60
2018-08-03T23:59:47.646Z,4.63
